createdAt,value
2023-03-18T00:00:09.986Z,11.71
2023-03-18T00:02:38.149Z,11.74
2023-03-18T00:05:07.476Z,11.82
2023-03-18T00:07:36.122Z,11.83
2023-03-18T00:10:03.607Z,11.81
2023-03-18T00:12:30.151Z,11.81
2023-03-18T00:14:56.543Z,11.81
2023-03-18T00:17:23.003Z,11.85
2023-03-18T00:19:50.271Z,11.83
2023-03-18T00:22:17.202Z,11.82
2023-03-18T00:24:43.700Z,11.86
2023-03-18T00:27:10.171Z,11.90
2023-03-18T00:29:36.542Z,11.93
2023-03-18T00:32:03.374Z,11.91
2023-03-18T00:34:29.762Z,11.95
2023-03-18T00:37:00.156Z,11.93
2023-03-18T00:39:28.897Z,11.92
2023-03-18T00:41:56.880Z,11.87
2023-03-18T00:44:25.297Z,11.91
2023-03-18T00:46:52.088Z,11.87
2023-03-18T00:49:19.111Z,11.87
2023-03-18T00:51:46.281Z,11.87
2023-03-18T00:54:17.816Z,11.88
2023-03-18T00:56:44.149Z,11.94
2023-03-18T00:59:10.539Z,11.95
2023-03-18T01:01:37.785Z,11.92
2023-03-18T01:04:04.781Z,11.94
2023-03-18T01:06:33.866Z,11.95
2023-03-18T01:09:01.418Z,11.91
2023-03-18T01:11:28.837Z,11.95
2023-03-18T01:13:55.359Z,11.89
2023-03-18T01:16:22.580Z,11.93
2023-03-18T01:18:49.154Z,11.87
2023-03-18T01:21:17.005Z,11.92
2023-03-18T01:23:43.461Z,12.01
2023-03-18T01:26:10.783Z,12.03
2023-03-18T01:28:37.488Z,11.92
2023-03-18T01:31:04.589Z,11.89
2023-03-18T01:33:31.495Z,11.88
2023-03-18T01:36:00.081Z,11.88
2023-03-18T01:38:31.107Z,11.88
2023-03-18T01:40:59.524Z,11.84
2023-03-18T01:43:30.485Z,11.92
2023-03-18T01:45:59.762Z,11.93
2023-03-18T01:48:31.644Z,11.85
2023-03-18T01:51:06.274Z,11.86
2023-03-18T01:53:39.045Z,11.81
2023-03-18T01:56:06.714Z,11.78
2023-03-18T01:58:38.451Z,11.85
2023-03-18T02:01:09.876Z,11.95
2023-03-18T02:03:36.822Z,11.94
2023-03-18T02:06:03.649Z,11.89
2023-03-18T02:08:30.153Z,11.90
2023-03-18T02:10:56.695Z,11.87
2023-03-18T02:13:24.801Z,11.86
2023-03-18T02:16:01.478Z,11.85
2023-03-18T02:18:34.458Z,11.84
2023-03-18T02:21:20.657Z,11.85
2023-03-18T02:24:09.433Z,11.87
2023-03-18T02:26:59.393Z,11.85
2023-03-18T02:29:31.162Z,11.81
2023-03-18T02:32:01.904Z,11.87
2023-03-18T02:34:29.899Z,11.82
2023-03-18T02:36:57.422Z,11.76
2023-03-18T02:39:23.958Z,11.70
2023-03-18T02:41:50.612Z,11.70
2023-03-18T02:44:19.270Z,11.79
2023-03-18T02:46:59.279Z,11.70
2023-03-18T02:49:27.518Z,11.68
2023-03-18T02:51:54.925Z,11.69
2023-03-18T02:54:24.084Z,11.70
2023-03-18T02:56:51.369Z,11.65
2023-03-18T02:59:19.025Z,11.65
2023-03-18T03:01:48.326Z,11.56
2023-03-18T03:04:16.605Z,11.52
2023-03-18T03:06:44.008Z,11.52
2023-03-18T03:09:13.536Z,11.48
2023-03-18T03:11:40.831Z,11.50
2023-03-18T03:14:08.396Z,11.60
2023-03-18T03:16:36.092Z,11.57
2023-03-18T03:19:02.709Z,11.54
2023-03-18T03:21:29.150Z,11.61
2023-03-18T03:23:55.551Z,11.63
2023-03-18T03:26:22.172Z,11.66
2023-03-18T03:28:48.638Z,11.69
2023-03-18T03:31:15.426Z,11.70
2023-03-18T03:33:43.626Z,11.62
2023-03-18T03:36:13.430Z,11.47
2023-03-18T03:38:41.595Z,11.44
2023-03-18T03:41:10.302Z,11.38
2023-03-18T03:43:38.760Z,11.29
2023-03-18T03:46:05.859Z,11.23
2023-03-18T03:48:32.430Z,11.22
2023-03-18T03:50:58.867Z,11.22
2023-03-18T03:53:25.312Z,11.22
2023-03-18T03:55:52.367Z,11.16
2023-03-18T03:58:18.784Z,11.14
2023-03-18T04:00:45.140Z,11.11
2023-03-18T04:03:11.826Z,11.08
2023-03-18T04:05:38.303Z,11.07
2023-03-18T04:08:05.115Z,11.04
2023-03-18T04:10:32.098Z,11.04
2023-03-18T04:12:58.707Z,11.04
2023-03-18T04:15:25.718Z,11.01
2023-03-18T04:17:52.092Z,11.03
2023-03-18T04:20:18.926Z,11.01
2023-03-18T04:22:45.676Z,11.06
2023-03-18T04:25:12.582Z,11.03
2023-03-18T04:27:39.134Z,11.02
2023-03-18T04:30:08.125Z,10.99
2023-03-18T04:32:34.503Z,11.00
2023-03-18T04:35:00.877Z,11.03
2023-03-18T04:37:27.268Z,11.10
2023-03-18T04:39:53.818Z,11.01
2023-03-18T04:42:20.159Z,11.02
2023-03-18T04:44:46.528Z,10.96
2023-03-18T04:47:13.727Z,10.95
2023-03-18T04:49:40.498Z,10.92
2023-03-18T04:52:07.498Z,10.96
2023-03-18T04:54:33.960Z,11.01
2023-03-18T04:57:00.697Z,10.99
2023-03-18T04:59:27.171Z,10.95
2023-03-18T05:01:53.992Z,10.98
2023-03-18T05:04:20.383Z,10.99
2023-03-18T05:06:47.228Z,11.04
2023-03-18T05:09:13.612Z,11.02
2023-03-18T05:11:39.923Z,10.93
2023-03-18T05:14:06.679Z,10.98
2023-03-18T05:16:33.372Z,11.00
2023-03-18T05:18:59.782Z,10.97
2023-03-18T05:21:26.264Z,10.87
2023-03-18T05:23:52.641Z,10.80
2023-03-18T05:26:19.048Z,10.79
2023-03-18T05:28:45.472Z,10.89
2023-03-18T05:31:13.024Z,10.94
2023-03-18T05:33:39.415Z,10.94
2023-03-18T05:36:06.171Z,10.84
2023-03-18T05:38:32.643Z,10.79
2023-03-18T05:40:59.030Z,10.75
2023-03-18T05:43:26.187Z,10.70
2023-03-18T05:45:52.660Z,10.76
2023-03-18T05:48:19.202Z,10.77
2023-03-18T05:50:46.720Z,10.81
2023-03-18T05:53:13.320Z,10.82
2023-03-18T05:55:40.408Z,10.74
2023-03-18T05:58:07.295Z,10.73
2023-03-18T06:00:34.429Z,10.69
2023-03-18T06:03:01.765Z,10.63
2023-03-18T06:05:29.615Z,10.68
2023-03-18T06:07:56.917Z,10.75
2023-03-18T06:10:25.378Z,10.76
2023-03-18T06:12:52.635Z,10.82
2023-03-18T06:15:19.480Z,10.88
2023-03-18T06:17:46.341Z,10.97
2023-03-18T06:20:14.731Z,11.01
2023-03-18T06:22:41.938Z,11.00
2023-03-18T06:25:08.742Z,11.07
2023-03-18T06:27:35.578Z,11.04
2023-03-18T06:30:04.504Z,11.13
2023-03-18T06:32:31.215Z,11.17
2023-03-18T06:34:57.680Z,11.26
2023-03-18T06:37:24.466Z,11.21
2023-03-18T06:39:51.181Z,11.29
2023-03-18T06:42:17.817Z,11.29
2023-03-18T06:44:50.389Z,11.31
2023-03-18T06:47:19.080Z,11.42
2023-03-18T06:49:45.636Z,11.51
2023-03-18T06:52:12.837Z,11.61
2023-03-18T06:54:39.289Z,11.61
2023-03-18T06:57:06.401Z,11.58
2023-03-18T06:59:33.066Z,11.71
2023-03-18T07:01:59.641Z,11.82
2023-03-18T07:04:26.248Z,12.01
2023-03-18T07:06:52.633Z,12.17
2023-03-18T07:09:19.359Z,12.18
2023-03-18T07:11:46.884Z,12.34
2023-03-18T07:14:14.544Z,12.45
2023-03-18T07:16:41.239Z,12.53
2023-03-18T07:19:07.707Z,12.65
2023-03-18T07:21:35.315Z,12.82
2023-03-18T07:24:03.876Z,12.92
2023-03-18T07:26:30.439Z,12.93
2023-03-18T07:28:56.910Z,12.99
2023-03-18T07:31:23.912Z,13.05
2023-03-18T07:33:50.546Z,13.15
2023-03-18T07:36:17.587Z,13.28
2023-03-18T07:38:43.983Z,13.40
2023-03-18T07:41:11.163Z,13.55
2023-03-18T07:43:38.568Z,13.50
2023-03-18T07:46:05.653Z,13.60
2023-03-18T07:48:34.172Z,13.58
2023-03-18T07:51:01.188Z,13.51
2023-03-18T07:53:28.617Z,13.50
2023-03-18T07:55:55.533Z,13.71
2023-03-18T07:58:22.229Z,13.73
2023-03-18T08:00:49.539Z,13.79
2023-03-18T08:03:16.537Z,13.82
2023-03-18T08:05:42.836Z,13.94
2023-03-18T08:08:09.798Z,13.93
2023-03-18T08:10:36.636Z,14.04
2023-03-18T08:13:03.913Z,13.98
2023-03-18T08:15:30.677Z,13.92
2023-03-18T08:17:57.457Z,13.97
2023-03-18T08:20:23.892Z,14.01
2023-03-18T08:22:50.765Z,14.05
2023-03-18T08:25:17.281Z,14.16
2023-03-18T08:27:43.735Z,14.50
2023-03-18T08:30:11.460Z,14.68
2023-03-18T08:32:38.420Z,14.72
2023-03-18T08:35:05.485Z,14.72
2023-03-18T08:37:32.561Z,14.73
2023-03-18T08:39:59.032Z,14.79
2023-03-18T08:42:25.482Z,14.91
2023-03-18T08:44:51.796Z,15.05
2023-03-18T08:47:18.179Z,15.14
2023-03-18T08:49:44.631Z,15.22
2023-03-18T08:52:11.703Z,15.21
2023-03-18T08:54:38.610Z,15.37
2023-03-18T08:57:05.093Z,15.43
2023-03-18T08:59:31.411Z,15.53
2023-03-18T09:01:57.760Z,15.30
2023-03-18T09:04:25.742Z,15.45
2023-03-18T09:06:52.061Z,15.35
2023-03-18T09:09:18.598Z,15.20
2023-03-18T09:11:46.353Z,15.12
2023-03-18T09:14:13.328Z,15.19
2023-03-18T09:16:40.374Z,15.20
2023-03-18T09:19:07.129Z,15.29
2023-03-18T09:21:33.474Z,15.34
2023-03-18T09:23:59.837Z,15.33
2023-03-18T09:26:26.155Z,15.31
2023-03-18T09:28:52.550Z,15.24
2023-03-18T09:31:19.280Z,15.31
2023-03-18T09:33:46.968Z,15.26
2023-03-18T09:36:13.917Z,15.30
2023-03-18T09:38:41.259Z,15.34
2023-03-18T09:41:29.780Z,15.39
2023-03-18T09:44:10.584Z,15.39
2023-03-18T09:47:18.604Z,15.37
2023-03-18T09:49:59.315Z,15.55
2023-03-18T09:52:35.870Z,15.57
2023-03-18T09:55:11.563Z,15.57
2023-03-18T09:57:46.970Z,15.69
2023-03-18T10:00:24.310Z,15.55
2023-03-18T10:02:55.478Z,15.60
2023-03-18T10:05:50.959Z,15.83
2023-03-18T10:08:43.373Z,16.00
2023-03-18T10:12:01.283Z,16.26
2023-03-18T10:14:39.574Z,16.20
2023-03-18T10:17:18.140Z,16.32
2023-03-18T10:19:48.708Z,16.34
2023-03-18T10:22:40.504Z,16.38
2023-03-18T10:25:27.712Z,16.41
2023-03-18T10:28:10.432Z,16.26
2023-03-18T10:30:45.895Z,16.35
2023-03-18T10:33:31.071Z,16.36
2023-03-18T10:36:18.605Z,16.38
2023-03-18T10:38:48.577Z,16.48
2023-03-18T10:41:32.535Z,16.51
2023-03-18T10:44:02.908Z,16.53
2023-03-18T10:46:30.445Z,16.56
2023-03-18T10:49:11.677Z,16.54
2023-03-18T10:51:54.235Z,16.62
2023-03-18T10:54:32.544Z,16.69
2023-03-18T10:56:59.006Z,16.66
2023-03-18T10:59:28.526Z,16.62
2023-03-18T11:02:02.363Z,16.72
2023-03-18T11:04:31.930Z,16.94
2023-03-18T11:07:02.758Z,17.12
2023-03-18T11:09:39.408Z,17.12
2023-03-18T11:12:19.355Z,17.31
2023-03-18T11:14:50.264Z,17.43
2023-03-18T11:17:28.188Z,17.29
2023-03-18T11:20:07.591Z,17.37
2023-03-18T11:22:36.594Z,17.52
2023-03-18T11:25:18.241Z,17.62
2023-03-18T11:27:51.197Z,17.63
2023-03-18T11:30:34.166Z,17.58
2023-03-18T11:33:10.771Z,17.75
2023-03-18T11:35:51.027Z,17.96
2023-03-18T11:38:18.710Z,17.97
2023-03-18T11:40:46.294Z,18.09
2023-03-18T11:43:22.391Z,18.20
2023-03-18T11:45:52.179Z,18.31
2023-03-18T11:48:41.070Z,18.37
2023-03-18T11:51:17.466Z,18.32
2023-03-18T11:54:02.855Z,18.30
2023-03-18T11:56:42.468Z,18.24
2023-03-18T11:59:44.379Z,18.17
2023-03-18T12:02:45.119Z,18.01
2023-03-18T12:05:33.674Z,18.04
2023-03-18T12:08:12.676Z,17.98
2023-03-18T12:10:57.791Z,18.00
2023-03-18T12:13:37.604Z,17.97
2023-03-18T12:16:09.837Z,17.76
2023-03-18T12:19:00.706Z,17.68
2023-03-18T12:21:45.796Z,17.77
2023-03-18T12:24:54.800Z,17.95
2023-03-18T12:27:41.651Z,18.06
2023-03-18T12:30:15.290Z,18.06
2023-03-18T12:33:04.183Z,18.16
2023-03-18T12:35:46.589Z,18.42
2023-03-18T12:38:35.574Z,18.59
2023-03-18T12:41:07.831Z,18.85
2023-03-18T12:43:59.078Z,19.14
2023-03-18T12:46:37.249Z,19.29
2023-03-18T12:49:36.280Z,19.43
2023-03-18T12:52:11.211Z,19.14
2023-03-18T12:54:49.906Z,18.88
2023-03-18T12:57:39.046Z,18.61
2023-03-18T13:00:18.803Z,18.58
2023-03-18T13:02:52.875Z,18.50
2023-03-18T13:05:48.960Z,18.36
2023-03-18T13:08:39.246Z,18.20
2023-03-18T13:11:29.052Z,18.08
2023-03-18T13:14:03.488Z,18.13
2023-03-18T13:16:32.695Z,18.10
2023-03-18T13:18:59.616Z,17.99
2023-03-18T13:21:30.881Z,17.92
2023-03-18T13:24:38.893Z,17.90
2023-03-18T13:27:28.649Z,17.78
2023-03-18T13:30:20.217Z,17.72
2023-03-18T13:33:04.675Z,17.76
2023-03-18T13:35:46.152Z,17.60
2023-03-18T13:38:43.240Z,17.56
2023-03-18T13:41:32.627Z,17.58
2023-03-18T13:44:04.145Z,17.62
2023-03-18T13:46:32.994Z,17.44
2023-03-18T13:49:01.806Z,17.36
2023-03-18T13:51:28.739Z,17.27
2023-03-18T13:54:02.078Z,17.19
2023-03-18T13:56:43.906Z,16.99
2023-03-18T13:59:35.440Z,16.81
2023-03-18T14:02:23.724Z,16.82
2023-03-18T14:04:51.647Z,16.71
2023-03-18T14:07:20.237Z,16.68
2023-03-18T14:09:49.414Z,16.58
2023-03-18T14:12:20.533Z,16.56
2023-03-18T14:15:02.416Z,16.53
2023-03-18T14:17:38.167Z,16.44
2023-03-18T14:20:27.107Z,16.38
2023-03-18T14:22:56.079Z,16.17
2023-03-18T14:25:27.225Z,16.05
2023-03-18T14:27:59.261Z,16.06
2023-03-18T14:30:32.070Z,16.00
2023-03-18T14:33:01.158Z,15.98
2023-03-18T14:35:49.722Z,15.88
2023-03-18T14:38:24.708Z,15.90
2023-03-18T14:40:54.967Z,15.79
2023-03-18T14:43:29.972Z,15.88
2023-03-18T14:45:58.888Z,15.95
2023-03-18T14:48:33.966Z,16.10
2023-03-18T14:51:20.101Z,16.19
2023-03-18T14:53:52.772Z,16.25
2023-03-18T14:56:25.116Z,16.38
2023-03-18T14:58:56.655Z,16.51
2023-03-18T15:01:28.062Z,16.70
2023-03-18T15:03:57.380Z,17.09
2023-03-18T15:06:26.881Z,17.30
2023-03-18T15:09:00.761Z,17.21
2023-03-18T15:11:28.096Z,17.26
2023-03-18T15:13:56.867Z,17.28
2023-03-18T15:16:25.329Z,17.32
2023-03-18T15:18:54.759Z,17.47
2023-03-18T15:21:26.114Z,17.77
2023-03-18T15:23:56.492Z,17.89
2023-03-18T15:26:37.828Z,17.69
2023-03-18T15:29:33.721Z,17.92
2023-03-18T15:32:23.998Z,18.49
2023-03-18T15:35:05.888Z,18.31
2023-03-18T15:37:40.551Z,18.25
2023-03-18T15:40:30.190Z,18.11
2023-03-18T15:43:03.246Z,17.95
2023-03-18T15:45:30.546Z,17.93
2023-03-18T15:47:58.406Z,17.84
2023-03-18T15:50:30.594Z,17.86
2023-03-18T15:53:03.118Z,17.80
2023-03-18T15:55:36.482Z,17.64
2023-03-18T15:58:15.525Z,17.57
2023-03-18T16:00:42.149Z,17.51
2023-03-18T16:03:18.982Z,17.52
2023-03-18T16:05:45.380Z,17.51
2023-03-18T16:08:13.993Z,17.51
2023-03-18T16:10:41.387Z,17.58
2023-03-18T16:13:15.842Z,17.59
2023-03-18T16:15:42.452Z,17.65
2023-03-18T16:18:10.208Z,17.58
2023-03-18T16:20:36.706Z,17.58
2023-03-18T16:23:03.052Z,17.56
2023-03-18T16:25:29.519Z,17.63
2023-03-18T16:27:58.710Z,17.47
2023-03-18T16:30:30.820Z,17.38
2023-03-18T16:32:58.132Z,17.29
2023-03-18T16:35:33.831Z,17.22
2023-03-18T16:38:01.163Z,17.24
2023-03-18T16:40:30.003Z,17.21
2023-03-18T16:42:56.531Z,17.20
2023-03-18T16:45:31.301Z,17.15
2023-03-18T16:48:01.723Z,17.10
2023-03-18T16:50:33.278Z,17.03
2023-03-18T16:52:59.736Z,16.98
2023-03-18T16:55:26.904Z,16.98
2023-03-18T16:57:58.107Z,17.00
2023-03-18T17:00:29.969Z,16.88
2023-03-18T17:02:56.326Z,16.89
2023-03-18T17:05:22.727Z,16.82
2023-03-18T17:07:50.378Z,16.78
2023-03-18T17:10:20.425Z,16.78
2023-03-18T17:12:59.438Z,16.64
2023-03-18T17:15:31.743Z,16.62
2023-03-18T17:17:59.756Z,16.59
2023-03-18T17:20:29.137Z,16.55
2023-03-18T17:22:55.797Z,16.52
2023-03-18T17:25:25.726Z,16.46
2023-03-18T17:27:55.870Z,16.46
2023-03-18T17:30:24.030Z,16.42
2023-03-18T17:32:50.900Z,16.37
2023-03-18T17:35:22.090Z,16.31
2023-03-18T17:37:49.101Z,16.22
2023-03-18T17:40:18.346Z,16.19
2023-03-18T17:42:45.648Z,16.13
2023-03-18T17:45:32.852Z,16.12
2023-03-18T17:48:26.387Z,16.09
2023-03-18T17:50:59.651Z,16.05
2023-03-18T17:53:37.124Z,16.01
2023-03-18T17:56:08.450Z,15.96
2023-03-18T17:58:35.277Z,15.79
2023-03-18T18:01:15.289Z,15.64
2023-03-18T18:03:41.859Z,15.53
2023-03-18T18:06:15.763Z,15.53
2023-03-18T18:08:42.901Z,15.51
2023-03-18T18:11:21.638Z,15.40
2023-03-18T18:13:49.074Z,15.31
2023-03-18T18:16:15.832Z,15.20
2023-03-18T18:18:42.676Z,15.13
2023-03-18T18:21:18.840Z,15.04
2023-03-18T18:23:45.801Z,15.00
2023-03-18T18:26:17.363Z,14.85
2023-03-18T18:28:48.020Z,14.74
2023-03-18T18:31:17.641Z,14.69
2023-03-18T18:33:45.582Z,14.63
2023-03-18T18:36:13.737Z,14.51
2023-03-18T18:38:40.430Z,14.47
2023-03-18T18:41:07.280Z,14.28
2023-03-18T18:43:33.692Z,14.21
2023-03-18T18:46:00.398Z,14.19
2023-03-18T18:48:32.733Z,14.19
2023-03-18T18:51:00.333Z,14.13
2023-03-18T18:53:32.132Z,14.00
2023-03-18T18:56:01.028Z,13.86
2023-03-18T18:58:30.290Z,13.78
2023-03-18T19:00:57.841Z,13.84
2023-03-18T19:03:29.009Z,13.84
2023-03-18T19:05:55.640Z,13.86
2023-03-18T19:08:26.643Z,13.90
2023-03-18T19:10:58.075Z,13.91
2023-03-18T19:13:25.772Z,13.91
2023-03-18T19:15:55.621Z,13.80
2023-03-18T19:18:24.841Z,13.75
2023-03-18T19:20:53.113Z,13.75
2023-03-18T19:23:26.593Z,13.74
2023-03-18T19:25:53.404Z,13.76
2023-03-18T19:28:55.138Z,13.76
2023-03-18T19:31:26.697Z,13.66
2023-03-18T19:33:53.839Z,13.58
2023-03-18T19:36:27.470Z,13.59
2023-03-18T19:38:55.552Z,13.60
2023-03-18T19:41:22.115Z,13.59
2023-03-18T19:43:48.855Z,13.61
2023-03-18T19:46:23.711Z,13.66
2023-03-18T19:48:50.681Z,13.60
2023-03-18T19:51:17.100Z,13.49
2023-03-18T19:53:45.260Z,13.51
2023-03-18T19:56:26.542Z,13.47
2023-03-18T19:58:58.028Z,13.46
2023-03-18T20:01:27.068Z,13.35
2023-03-18T20:03:58.113Z,13.08
2023-03-18T20:06:25.622Z,13.03
2023-03-18T20:08:52.127Z,13.06
2023-03-18T20:11:20.976Z,13.06
2023-03-18T20:13:48.148Z,13.08
2023-03-18T20:16:16.259Z,12.89
2023-03-18T20:18:42.756Z,12.89
2023-03-18T20:21:22.080Z,12.86
2023-03-18T20:23:49.832Z,12.86
2023-03-18T20:26:16.455Z,12.83
2023-03-18T20:28:45.437Z,12.77
2023-03-18T20:31:12.024Z,12.82
2023-03-18T20:33:38.416Z,12.77
2023-03-18T20:36:06.095Z,12.80
2023-03-18T20:38:35.283Z,12.81
2023-03-18T20:41:02.111Z,12.81
2023-03-18T20:43:29.257Z,12.82
2023-03-18T20:45:57.386Z,12.79
2023-03-18T20:48:23.944Z,12.80
2023-03-18T20:50:51.466Z,12.78
2023-03-18T20:53:21.872Z,12.78
2023-03-18T20:55:49.491Z,12.75
2023-03-18T20:58:21.427Z,12.70
2023-03-18T21:00:48.210Z,12.64
2023-03-18T21:03:24.025Z,12.60
2023-03-18T21:05:52.206Z,12.61
2023-03-18T21:08:19.180Z,12.55
2023-03-18T21:10:46.084Z,12.54
2023-03-18T21:13:32.033Z,12.53
2023-03-18T21:16:00.086Z,12.54
2023-03-18T21:18:26.813Z,12.54
2023-03-18T21:20:53.828Z,12.57
2023-03-18T21:23:28.630Z,12.53
2023-03-18T21:25:56.120Z,12.41
2023-03-18T21:28:25.499Z,12.31
2023-03-18T21:30:56.230Z,12.33
2023-03-18T21:33:31.236Z,12.38
2023-03-18T21:35:57.827Z,12.41
2023-03-18T21:38:31.768Z,12.43
2023-03-18T21:40:59.104Z,12.45
2023-03-18T21:43:32.753Z,12.48
2023-03-18T21:46:00.347Z,12.47
2023-03-18T21:48:27.195Z,12.47
2023-03-18T21:50:54.011Z,12.45
2023-03-18T21:53:23.082Z,12.50
2023-03-18T21:55:50.667Z,12.56
2023-03-18T21:58:19.265Z,12.61
2023-03-18T22:00:49.369Z,12.65
2023-03-18T22:03:16.919Z,12.66
2023-03-18T22:05:43.820Z,12.61
2023-03-18T22:08:10.326Z,12.64
2023-03-18T22:10:36.869Z,12.71
2023-03-18T22:13:18.184Z,12.68
2023-03-18T22:15:47.063Z,12.69
2023-03-18T22:18:14.758Z,12.73
2023-03-18T22:20:41.866Z,12.76
2023-03-18T22:23:27.262Z,12.75
2023-03-18T22:25:56.476Z,12.77
2023-03-18T22:28:24.741Z,12.75
2023-03-18T22:30:52.717Z,12.73
2023-03-18T22:33:31.749Z,12.76
2023-03-18T22:35:58.270Z,12.73
2023-03-18T22:38:25.772Z,12.72
2023-03-18T22:40:55.380Z,12.73
2023-03-18T22:43:34.583Z,12.75
2023-03-18T22:46:05.161Z,12.80
2023-03-18T22:48:32.175Z,12.79
2023-03-18T22:51:00.100Z,12.78
2023-03-18T22:53:39.532Z,12.82
2023-03-18T22:56:10.041Z,12.80
2023-03-18T22:58:36.462Z,12.82
2023-03-18T23:01:04.240Z,12.84
2023-03-18T23:03:36.807Z,12.84
2023-03-18T23:06:03.944Z,12.91
2023-03-18T23:08:31.242Z,12.92
2023-03-18T23:11:00.867Z,12.93
2023-03-18T23:13:36.272Z,12.96
2023-03-18T23:16:05.601Z,12.95
2023-03-18T23:18:32.422Z,12.79
2023-03-18T23:20:59.160Z,12.74
2023-03-18T23:23:26.018Z,12.73
2023-03-18T23:25:52.691Z,12.70
2023-03-18T23:28:19.458Z,12.74
2023-03-18T23:30:51.556Z,12.80
2023-03-18T23:33:18.957Z,12.82
2023-03-18T23:35:46.130Z,12.90
2023-03-18T23:38:12.565Z,12.88
2023-03-18T23:40:38.970Z,12.86
2023-03-18T23:43:06.567Z,12.89
2023-03-18T23:45:33.420Z,12.96
2023-03-18T23:47:59.979Z,12.85
2023-03-18T23:50:26.277Z,12.79
2023-03-18T23:52:52.615Z,12.80
2023-03-18T23:55:33.597Z,12.80
2023-03-18T23:58:00.786Z,12.77
